createdAt,value
2019-02-18T00:01:21.383Z,47.05
2019-02-18T00:02:37.664Z,37.67
2019-02-18T00:03:54.175Z,40.43
2019-02-18T00:05:10.842Z,46.58
2019-02-18T00:06:27.599Z,44.55
2019-02-18T00:07:43.848Z,41.83
2019-02-18T00:09:00.644Z,40.45
2019-02-18T00:10:19.412Z,40.08
2019-02-18T00:11:36.264Z,40.40
2019-02-18T00:12:52.712Z,38.95
2019-02-18T00:14:09.281Z,47.10
2019-02-18T00:15:25.852Z,38.80
2019-02-18T00:16:42.467Z,37.30
2019-02-18T00:17:59.214Z,35.68
2019-02-18T00:19:15.889Z,43.90
2019-02-18T00:20:32.587Z,44.38
2019-02-18T00:21:49.333Z,34.58
2019-02-18T00:23:06.137Z,36.80
2019-02-18T00:24:22.664Z,38.40
2019-02-18T00:25:39.348Z,33.65
2019-02-18T00:26:56.182Z,36.45
2019-02-18T00:28:12.849Z,38.13
2019-02-18T00:29:29.276Z,40.73
2019-02-18T00:30:45.835Z,41.20
2019-02-18T00:32:02.791Z,40.95
2019-02-18T00:33:19.427Z,37.40
2019-02-18T00:34:36.120Z,43.42
2019-02-18T00:35:52.664Z,40.85
2019-02-18T00:37:09.440Z,39.75
2019-02-18T00:38:25.954Z,38.40
2019-02-18T00:39:42.195Z,37.85
2019-02-18T00:40:59.335Z,34.48
2019-02-18T00:42:16.105Z,37.40
2019-02-18T00:43:32.747Z,31.75
2019-02-18T00:44:49.018Z,35.25
2019-02-18T00:46:06.087Z,35.55
2019-02-18T00:47:22.375Z,34.75
2019-02-18T00:48:38.847Z,40.52
2019-02-18T00:49:55.661Z,34.65
2019-02-18T00:51:12.600Z,34.58
2019-02-18T00:52:29.291Z,34.92
2019-02-18T00:53:45.847Z,36.45
2019-02-18T00:55:02.111Z,37.63
2019-02-18T00:56:19.271Z,36.53
2019-02-18T00:57:36.085Z,39.75
2019-02-18T00:58:52.318Z,38.70
2019-02-18T01:00:08.827Z,39.65
2019-02-18T01:01:25.309Z,36.65
2019-02-18T01:02:41.823Z,34.78
2019-02-18T01:03:58.100Z,41.40
2019-02-18T01:05:14.440Z,39.35
2019-02-18T01:06:31.110Z,39.90
2019-02-18T01:07:47.486Z,41.53
2019-02-18T01:09:04.716Z,39.40
2019-02-18T01:10:21.503Z,39.45
2019-02-18T01:11:37.963Z,39.50
2019-02-18T01:12:55.120Z,37.90
2019-02-18T01:14:11.532Z,37.25
2019-02-18T01:15:28.007Z,38.60
2019-02-18T01:16:44.200Z,38.85
2019-02-18T01:18:00.413Z,37.25
2019-02-18T01:19:16.745Z,44.15
2019-02-18T01:21:49.845Z,38.60
2019-02-18T01:23:06.455Z,36.25
2019-02-18T01:24:22.981Z,38.73
2019-02-18T01:25:39.634Z,39.48
2019-02-18T01:26:56.093Z,40.85
2019-02-18T01:28:13.221Z,36.60
2019-02-18T01:29:29.599Z,36.88
2019-02-18T01:30:46.337Z,41.28
2019-02-18T01:32:02.924Z,40.73
2019-02-18T01:33:19.577Z,40.78
2019-02-18T01:34:36.699Z,42.23
2019-02-18T01:35:53.587Z,38.50
2019-02-18T01:37:10.708Z,42.48
2019-02-18T01:38:26.920Z,45.28
2019-02-18T01:39:43.158Z,42.40
2019-02-18T01:41:00.042Z,37.55
2019-02-18T01:42:16.419Z,36.25
2019-02-18T01:43:32.628Z,36.63
2019-02-18T01:44:49.408Z,40.80
2019-02-18T01:46:05.882Z,42.40
2019-02-18T01:47:22.542Z,38.65
2019-02-18T01:48:38.995Z,39.27
2019-02-18T01:49:55.624Z,37.28
2019-02-18T01:51:12.300Z,36.05
2019-02-18T01:52:28.768Z,37.55
2019-02-18T01:53:45.148Z,41.20
2019-02-18T01:55:01.430Z,44.25
2019-02-18T01:56:18.289Z,38.17
2019-02-18T01:57:35.068Z,39.65
2019-02-18T01:58:51.732Z,34.67
2019-02-18T02:00:08.370Z,39.98
2019-02-18T02:01:25.034Z,41.13
2019-02-18T02:02:41.825Z,36.53
2019-02-18T02:03:59.575Z,42.20
2019-02-18T02:05:16.240Z,37.78
2019-02-18T02:06:32.522Z,35.03
2019-02-18T02:07:55.707Z,38.20
2019-02-18T02:09:08.667Z,39.73
2019-02-18T02:10:25.001Z,43.42
2019-02-18T02:11:42.108Z,39.67
2019-02-18T02:12:58.603Z,38.67
2019-02-18T02:14:14.969Z,36.35
2019-02-18T02:15:31.161Z,42.50
2019-02-18T02:16:47.419Z,39.83
2019-02-18T02:18:03.987Z,44.18
2019-02-18T02:19:20.572Z,38.98
2019-02-18T02:20:37.078Z,42.60
2019-02-18T02:21:53.816Z,40.75
2019-02-18T02:23:10.242Z,37.28
2019-02-18T02:24:26.715Z,42.55
2019-02-18T02:25:43.088Z,38.63
2019-02-18T02:26:59.581Z,45.23
2019-02-18T02:28:16.242Z,42.13
2019-02-18T02:29:32.703Z,42.53
2019-02-18T02:30:48.919Z,36.23
2019-02-18T02:32:05.519Z,44.70
2019-02-18T02:33:22.129Z,43.73
2019-02-18T02:34:38.847Z,45.63
2019-02-18T02:35:55.473Z,39.45
2019-02-18T02:37:12.176Z,43.10
2019-02-18T02:38:28.822Z,39.78
2019-02-18T02:39:45.500Z,41.92
2019-02-18T02:41:01.860Z,36.93
2019-02-18T02:42:18.189Z,38.83
2019-02-18T02:43:34.533Z,40.67
2019-02-18T02:44:51.407Z,38.53
2019-02-18T02:46:08.143Z,45.98
2019-02-18T02:47:24.600Z,38.15
2019-02-18T02:48:41.210Z,40.60
2019-02-18T02:49:57.881Z,36.73
2019-02-18T02:51:14.330Z,43.25
2019-02-18T02:52:30.952Z,42.40
2019-02-18T02:53:47.435Z,40.23
2019-02-18T02:55:03.732Z,44.05
2019-02-18T02:56:20.289Z,36.93
2019-02-18T02:57:36.924Z,41.02
2019-02-18T02:58:53.188Z,39.40
2019-02-18T03:00:10.287Z,42.90
2019-02-18T03:01:26.879Z,41.85
2019-02-18T03:02:43.305Z,36.58
2019-02-18T03:04:00.346Z,39.65
2019-02-18T03:05:16.864Z,36.98
2019-02-18T03:06:34.158Z,38.88
2019-02-18T03:07:50.392Z,41.55
2019-02-18T03:09:08.852Z,43.48
2019-02-18T03:10:25.797Z,38.30
2019-02-18T03:11:42.096Z,38.95
2019-02-18T03:12:58.711Z,36.95
2019-02-18T03:14:15.228Z,36.85
2019-02-18T03:15:32.090Z,38.35
2019-02-18T03:16:48.815Z,37.75
2019-02-18T03:18:05.525Z,39.30
2019-02-18T03:19:21.919Z,35.55
2019-02-18T03:20:38.876Z,36.65
2019-02-18T03:21:55.518Z,39.03
2019-02-18T03:23:12.133Z,35.35
2019-02-18T03:24:28.673Z,35.65
2019-02-18T03:25:43.178Z,41.23
2019-02-18T03:26:59.622Z,45.10
2019-02-18T03:28:16.010Z,37.38
2019-02-18T03:29:32.581Z,41.75
2019-02-18T03:30:49.157Z,39.00
2019-02-18T03:32:06.741Z,36.83
2019-02-18T03:33:23.133Z,42.05
2019-02-18T03:34:39.871Z,34.75
2019-02-18T03:35:56.995Z,38.35
2019-02-18T03:37:13.931Z,37.75
2019-02-18T03:38:31.938Z,35.17
2019-02-18T03:39:48.312Z,37.03
2019-02-18T03:41:05.001Z,38.53
2019-02-18T03:42:21.629Z,38.73
2019-02-18T03:43:38.256Z,35.83
2019-02-18T03:44:54.879Z,38.92
2019-02-18T03:46:11.551Z,45.55
2019-02-18T03:47:28.028Z,37.80
2019-02-18T03:48:44.480Z,37.25
2019-02-18T03:50:00.991Z,40.85
2019-02-18T03:51:17.670Z,36.15
2019-02-18T03:52:34.102Z,40.58
2019-02-18T03:53:50.450Z,37.73
2019-02-18T03:55:06.675Z,39.80
2019-02-18T03:56:22.980Z,40.28
2019-02-18T03:57:39.340Z,38.15
2019-02-18T03:58:55.628Z,39.60
2019-02-18T04:00:11.899Z,37.28
2019-02-18T04:01:28.103Z,41.85
2019-02-18T04:02:45.415Z,36.77
2019-02-18T04:04:01.739Z,35.00
2019-02-18T04:05:18.139Z,39.45
2019-02-18T04:06:34.496Z,43.40
2019-02-18T04:07:50.794Z,42.15
2019-02-18T04:09:10.914Z,42.95
2019-02-18T04:10:27.156Z,42.98
2019-02-18T04:11:43.662Z,39.98
2019-02-18T04:13:00.349Z,42.58
2019-02-18T04:14:16.634Z,46.42
2019-02-18T04:15:32.969Z,44.15
2019-02-18T04:16:49.184Z,41.60
2019-02-18T04:18:05.758Z,50.20
2019-02-18T04:19:22.300Z,43.08
2019-02-18T04:20:38.662Z,41.40
2019-02-18T04:21:55.223Z,49.85
2019-02-18T04:23:11.822Z,49.80
2019-02-18T04:24:28.264Z,48.78
2019-02-18T04:25:44.764Z,47.60
2019-02-18T04:27:01.405Z,44.00
2019-02-18T04:28:17.647Z,46.53
2019-02-18T04:29:34.107Z,45.95
2019-02-18T04:30:50.648Z,48.13
2019-02-18T04:32:07.270Z,47.90
2019-02-18T04:33:24.828Z,44.98
2019-02-18T04:34:41.961Z,52.25
2019-02-18T04:35:58.441Z,53.40
2019-02-18T04:37:14.700Z,47.90
2019-02-18T04:38:31.039Z,44.05
2019-02-18T04:39:47.316Z,43.95
2019-02-18T04:41:03.813Z,49.53
2019-02-18T04:42:20.916Z,43.92
2019-02-18T04:43:37.689Z,44.23
2019-02-18T04:44:54.328Z,46.18
2019-02-18T04:46:10.762Z,49.00
2019-02-18T04:47:27.594Z,45.23
2019-02-18T04:48:44.118Z,47.67
2019-02-18T04:50:00.752Z,48.87
2019-02-18T04:51:18.493Z,52.78
2019-02-18T04:52:35.067Z,44.40
2019-02-18T04:53:51.923Z,49.98
2019-02-18T04:55:08.525Z,48.42
2019-02-18T04:56:25.348Z,48.33
2019-02-18T04:57:41.703Z,51.55
2019-02-18T04:58:58.077Z,47.85
2019-02-18T05:00:14.680Z,52.67
2019-02-18T05:01:31.139Z,55.88
2019-02-18T05:02:48.248Z,53.73
2019-02-18T05:04:04.868Z,52.90
2019-02-18T05:05:21.390Z,51.37
2019-02-18T05:06:38.037Z,52.27
2019-02-18T05:07:54.782Z,51.98
2019-02-18T05:09:11.381Z,51.20
2019-02-18T05:10:28.461Z,54.88
2019-02-18T05:11:44.892Z,51.80
2019-02-18T05:13:01.236Z,55.88
2019-02-18T05:14:18.150Z,48.92
2019-02-18T05:16:47.176Z,54.50
2019-02-18T05:18:03.952Z,50.00
2019-02-18T05:19:22.963Z,52.30
2019-02-18T05:20:39.434Z,56.08
2019-02-18T05:21:57.543Z,53.40
2019-02-18T05:23:14.313Z,50.65
2019-02-18T05:24:31.102Z,50.40
2019-02-18T05:25:47.632Z,49.98
2019-02-18T05:27:04.001Z,45.38
2019-02-18T05:28:20.835Z,46.10
2019-02-18T05:29:37.112Z,47.55
2019-02-18T05:30:55.186Z,49.40
2019-02-18T05:32:11.748Z,48.38
2019-02-18T05:33:29.243Z,48.15
2019-02-18T05:34:46.311Z,48.23
2019-02-18T05:36:02.955Z,49.88
2019-02-18T05:37:19.603Z,48.13
2019-02-18T05:38:36.282Z,48.33
2019-02-18T05:39:55.483Z,55.28
2019-02-18T05:41:12.569Z,44.80
2019-02-18T05:42:29.250Z,51.92
2019-02-18T05:43:49.183Z,48.02
2019-02-18T05:45:06.363Z,48.92
2019-02-18T05:47:21.109Z,52.83
2019-02-18T05:48:38.057Z,47.83
2019-02-18T05:49:54.853Z,49.03
2019-02-18T05:51:11.527Z,49.77
2019-02-18T05:52:28.712Z,46.88
2019-02-18T05:53:45.342Z,52.08
2019-02-18T05:55:02.327Z,55.48
2019-02-18T05:56:19.424Z,49.67
2019-02-18T05:57:35.943Z,48.80
2019-02-18T05:58:52.660Z,53.52
2019-02-18T06:00:09.771Z,49.50
2019-02-18T06:01:26.775Z,45.15
2019-02-18T06:02:43.102Z,49.55
2019-02-18T06:04:00.234Z,48.65
2019-02-18T06:05:17.551Z,44.55
2019-02-18T06:06:35.088Z,49.10
2019-02-18T06:07:52.346Z,45.92
2019-02-18T06:09:09.454Z,44.83
2019-02-18T06:10:26.266Z,42.13
2019-02-18T06:11:42.477Z,49.48
2019-02-18T06:12:59.196Z,45.23
2019-02-18T06:14:15.974Z,48.00
2019-02-18T06:15:33.219Z,48.42
2019-02-18T06:16:49.866Z,46.63
2019-02-18T06:18:06.190Z,51.70
2019-02-18T06:19:22.696Z,46.95
2019-02-18T06:20:39.301Z,49.90
2019-02-18T06:21:55.807Z,52.65
2019-02-18T06:23:12.171Z,47.73
2019-02-18T06:24:28.659Z,41.50
2019-02-18T06:25:45.278Z,49.60
2019-02-18T06:27:01.971Z,50.28
2019-02-18T06:28:18.243Z,52.53
2019-02-18T06:29:34.525Z,48.78
2019-02-18T06:30:51.076Z,47.98
2019-02-18T06:32:07.745Z,45.28
2019-02-18T06:33:24.253Z,47.13
2019-02-18T06:34:40.725Z,45.92
2019-02-18T06:35:57.307Z,44.73
2019-02-18T06:37:13.585Z,46.10
2019-02-18T06:38:30.039Z,45.73
2019-02-18T06:39:46.723Z,47.05
2019-02-18T06:41:03.334Z,48.70
2019-02-18T06:42:20.071Z,47.20
2019-02-18T06:43:36.465Z,48.38
2019-02-18T06:46:52.453Z,73.40
2019-02-18T06:50:14.508Z,55.45
2019-02-18T06:51:31.345Z,48.35
2019-02-18T06:52:47.699Z,45.45
2019-02-18T06:54:04.217Z,48.92
2019-02-18T06:55:20.744Z,45.43
2019-02-18T06:58:34.720Z,53.15
2019-02-18T06:59:56.420Z,45.78
2019-02-18T07:01:32.296Z,44.98
2019-02-18T07:03:07.632Z,44.55
2019-02-18T07:04:31.371Z,43.23
2019-02-18T07:06:02.882Z,40.65
2019-02-18T07:07:38.830Z,42.78
2019-02-18T07:09:02.301Z,45.60
2019-02-18T07:10:27.692Z,50.40
2019-02-18T07:11:49.054Z,46.10
2019-02-18T07:13:06.149Z,44.27
2019-02-18T07:14:22.454Z,43.08
2019-02-18T07:15:38.766Z,43.68
2019-02-18T07:16:55.156Z,44.03
2019-02-18T07:18:12.120Z,45.65
2019-02-18T07:19:28.719Z,42.53
2019-02-18T07:20:45.233Z,40.65
2019-02-18T07:22:01.813Z,47.13
2019-02-18T07:23:18.925Z,43.73
2019-02-18T07:24:35.375Z,48.55
2019-02-18T07:25:51.949Z,45.90
2019-02-18T07:27:08.709Z,39.88
2019-02-18T07:28:25.474Z,47.60
2019-02-18T07:29:42.413Z,47.58
2019-02-18T07:30:59.004Z,49.25
2019-02-18T07:32:15.577Z,46.25
2019-02-18T07:33:32.059Z,44.13
2019-02-18T07:34:48.463Z,40.75
2019-02-18T07:36:05.046Z,41.95
2019-02-18T07:37:21.506Z,45.55
2019-02-18T07:38:37.955Z,42.62
2019-02-18T07:40:01.222Z,44.70
2019-02-18T07:41:12.708Z,38.63
2019-02-18T07:42:29.346Z,43.83
2019-02-18T07:43:45.946Z,43.58
2019-02-18T07:45:02.258Z,43.63
2019-02-18T07:46:19.380Z,42.88
2019-02-18T07:47:36.076Z,43.95
2019-02-18T07:48:52.547Z,49.13
2019-02-18T07:50:08.732Z,47.53
2019-02-18T07:51:25.109Z,43.13
2019-02-18T07:52:41.595Z,39.45
2019-02-18T07:53:57.853Z,42.67
2019-02-18T07:55:14.144Z,40.58
2019-02-18T07:56:30.473Z,39.42
2019-02-18T07:57:47.132Z,44.15
2019-02-18T07:59:03.679Z,44.27
2019-02-18T08:00:20.016Z,49.80
2019-02-18T08:01:39.274Z,45.43
2019-02-18T08:02:56.397Z,42.95
2019-02-18T08:04:13.432Z,46.13
2019-02-18T08:05:29.733Z,44.18
2019-02-18T08:06:46.716Z,45.90
2019-02-18T08:08:03.303Z,46.85
2019-02-18T08:09:19.952Z,46.80
2019-02-18T08:10:37.064Z,47.62
2019-02-18T08:11:53.858Z,45.00
2019-02-18T08:13:10.637Z,42.80
2019-02-18T08:14:27.136Z,44.77
2019-02-18T08:15:43.667Z,46.45
2019-02-18T08:17:00.099Z,44.50
2019-02-18T08:18:16.468Z,57.95
2019-02-18T08:19:32.853Z,44.30
2019-02-18T08:20:49.656Z,39.78
2019-02-18T08:22:06.310Z,49.38
2019-02-18T08:23:22.944Z,45.67
2019-02-18T08:24:39.428Z,45.75
2019-02-18T08:25:56.464Z,41.30
2019-02-18T08:27:13.342Z,45.25
2019-02-18T08:28:29.964Z,40.58
2019-02-18T08:29:47.041Z,49.63
2019-02-18T08:31:03.615Z,43.15
2019-02-18T08:32:20.364Z,47.95
2019-02-18T08:33:39.888Z,57.83
2019-02-18T08:34:57.055Z,44.18
2019-02-18T08:36:13.473Z,47.10
2019-02-18T08:37:30.397Z,44.05
2019-02-18T08:38:47.144Z,48.50
2019-02-18T08:40:04.001Z,44.05
2019-02-18T08:41:20.463Z,49.40
2019-02-18T08:42:37.581Z,42.60
2019-02-18T08:43:54.381Z,40.63
2019-02-18T08:45:11.460Z,40.95
2019-02-18T08:46:27.756Z,35.28
2019-02-18T08:47:44.152Z,38.95
2019-02-18T08:49:00.557Z,36.95
2019-02-18T08:50:16.883Z,34.58
2019-02-18T08:51:33.597Z,35.58
2019-02-18T08:52:49.989Z,39.23
2019-02-18T08:54:06.414Z,35.75
2019-02-18T08:55:23.013Z,41.75
2019-02-18T08:56:39.500Z,36.93
2019-02-18T08:57:55.870Z,35.68
2019-02-18T08:59:12.336Z,32.67
2019-02-18T09:00:29.715Z,32.05
2019-02-18T09:01:46.443Z,37.90
2019-02-18T09:03:02.900Z,34.98
2019-02-18T09:04:19.392Z,33.05
2019-02-18T09:05:36.130Z,34.63
2019-02-18T09:06:52.636Z,43.87
2019-02-18T09:08:09.281Z,39.33
2019-02-18T09:09:26.178Z,39.23
2019-02-18T09:10:42.890Z,40.70
2019-02-18T09:11:59.564Z,38.85
2019-02-18T09:13:16.365Z,35.83
2019-02-18T09:14:33.008Z,36.42
2019-02-18T09:15:59.484Z,35.25
2019-02-18T09:17:08.060Z,37.65
2019-02-18T09:18:24.339Z,40.20
2019-02-18T09:19:41.466Z,35.80
2019-02-18T09:20:58.309Z,43.02
2019-02-18T09:22:33.900Z,35.98
2019-02-18T09:24:06.705Z,41.42
2019-02-18T09:25:25.429Z,34.38
2019-02-18T09:26:42.266Z,40.43
2019-02-18T09:27:58.761Z,35.63
2019-02-18T09:29:15.240Z,38.20
2019-02-18T09:30:34.105Z,37.13
2019-02-18T09:31:51.257Z,36.88
2019-02-18T09:33:07.576Z,45.65
2019-02-18T09:34:24.384Z,37.95
2019-02-18T09:35:40.595Z,38.75
2019-02-18T09:36:57.048Z,38.80
2019-02-18T09:38:23.818Z,41.02
2019-02-18T09:39:31.856Z,37.63
2019-02-18T09:40:51.350Z,34.13
2019-02-18T09:42:07.039Z,35.83
2019-02-18T09:43:23.737Z,38.40
2019-02-18T09:44:40.614Z,38.63
2019-02-18T09:45:56.941Z,36.45
2019-02-18T09:47:13.485Z,46.28
2019-02-18T09:48:29.938Z,36.10
2019-02-18T09:49:47.169Z,37.58
2019-02-18T09:51:03.788Z,36.20
2019-02-18T09:52:20.071Z,40.03
2019-02-18T09:53:37.226Z,39.95
2019-02-18T09:54:53.950Z,38.40
2019-02-18T09:56:10.587Z,32.28
2019-02-18T09:57:27.056Z,36.70
2019-02-18T09:58:43.274Z,33.80
2019-02-18T09:59:59.944Z,39.98
2019-02-18T10:01:16.635Z,34.03
2019-02-18T10:02:33.196Z,34.40
2019-02-18T10:03:49.921Z,38.45
2019-02-18T10:05:06.535Z,36.03
2019-02-18T10:06:23.275Z,35.52
2019-02-18T10:07:39.662Z,33.88
2019-02-18T10:08:56.610Z,36.63
2019-02-18T10:10:13.062Z,37.45
2019-02-18T10:11:29.373Z,36.98
2019-02-18T10:12:45.774Z,44.50
2019-02-18T10:14:02.292Z,34.70
2019-02-18T10:15:18.643Z,31.35
2019-02-18T10:16:35.258Z,35.50
2019-02-18T10:17:51.936Z,39.27
2019-02-18T10:19:08.585Z,35.38
2019-02-18T10:20:25.119Z,38.58
2019-02-18T10:21:41.748Z,36.48
2019-02-18T10:22:58.219Z,34.63
2019-02-18T10:24:15.002Z,40.52
2019-02-18T10:25:31.407Z,32.65
2019-02-18T10:26:48.075Z,37.28
2019-02-18T10:28:04.944Z,37.93
2019-02-18T10:29:21.454Z,37.40
2019-02-18T10:30:37.725Z,35.88
2019-02-18T10:31:54.151Z,34.75
2019-02-18T10:33:11.680Z,32.75
2019-02-18T10:34:28.363Z,35.78
2019-02-18T10:35:44.918Z,40.95
2019-02-18T10:37:01.367Z,33.95
2019-02-18T10:38:17.915Z,30.45
2019-02-18T10:39:34.175Z,34.03
2019-02-18T10:40:51.341Z,34.30
2019-02-18T10:42:08.361Z,34.40
2019-02-18T10:43:13.441Z,35.48
2019-02-18T10:44:37.260Z,32.63
2019-02-18T10:45:54.104Z,33.40
2019-02-18T10:47:10.682Z,32.90
2019-02-18T10:48:27.075Z,34.05
2019-02-18T10:49:43.485Z,33.58
2019-02-18T10:50:59.835Z,29.90
2019-02-18T10:52:16.061Z,29.32
2019-02-18T10:53:32.486Z,32.45
2019-02-18T10:54:49.686Z,32.95
2019-02-18T10:56:06.961Z,31.70
2019-02-18T10:57:23.581Z,30.43
2019-02-18T10:58:40.632Z,32.20
2019-02-18T10:59:59.206Z,32.78
2019-02-18T11:01:15.187Z,31.70
2019-02-18T11:02:31.770Z,33.35
2019-02-18T11:03:48.973Z,34.85
2019-02-18T11:05:05.337Z,35.03
2019-02-18T11:06:21.626Z,30.88
2019-02-18T11:07:38.214Z,31.00
2019-02-18T11:08:54.711Z,32.13
2019-02-18T11:10:11.118Z,35.40
2019-02-18T11:11:27.662Z,31.40
2019-02-18T11:12:44.067Z,30.72
2019-02-18T11:14:00.719Z,37.88
2019-02-18T11:15:17.394Z,28.57
2019-02-18T11:16:34.448Z,31.95
2019-02-18T11:17:51.092Z,34.53
2019-02-18T11:19:07.327Z,36.95
2019-02-18T11:20:23.725Z,33.18
2019-02-18T11:21:40.262Z,31.73
2019-02-18T11:22:57.475Z,31.95
2019-02-18T11:24:13.840Z,32.48
2019-02-18T11:25:30.254Z,35.95
2019-02-18T11:26:47.204Z,32.38
2019-02-18T11:28:03.538Z,35.92
2019-02-18T11:29:20.275Z,36.93
2019-02-18T11:30:38.973Z,31.10
2019-02-18T11:31:55.109Z,32.10
2019-02-18T11:33:11.738Z,34.38
2019-02-18T11:34:28.716Z,35.52
2019-02-18T11:35:46.146Z,32.60
2019-02-18T11:37:02.368Z,32.33
2019-02-18T11:38:18.741Z,32.93
2019-02-18T11:39:35.533Z,32.28
2019-02-18T11:40:51.997Z,27.20
2019-02-18T11:42:08.427Z,30.05
2019-02-18T11:43:25.097Z,30.12
2019-02-18T11:44:41.671Z,32.45
2019-02-18T11:45:58.064Z,30.50
2019-02-18T11:47:14.754Z,34.83
2019-02-18T11:48:31.685Z,27.58
2019-02-18T11:49:48.167Z,27.73
2019-02-18T11:51:04.900Z,32.85
2019-02-18T11:52:21.469Z,31.60
2019-02-18T11:53:38.254Z,29.67
2019-02-18T11:54:55.567Z,29.25
2019-02-18T11:56:11.933Z,28.17
2019-02-18T11:57:28.108Z,33.42
2019-02-18T11:58:44.568Z,29.48
2019-02-18T12:00:00.848Z,34.20
2019-02-18T12:01:17.310Z,28.92
2019-02-18T12:02:34.277Z,28.35
2019-02-18T12:03:50.739Z,34.48
2019-02-18T12:05:07.132Z,30.80
2019-02-18T12:06:23.625Z,26.87
2019-02-18T12:07:40.730Z,29.55
2019-02-18T12:08:57.347Z,31.37
2019-02-18T12:10:14.461Z,30.48
2019-02-18T12:11:38.072Z,32.80
2019-02-18T12:12:49.980Z,29.00
2019-02-18T12:14:06.338Z,25.85
2019-02-18T12:15:23.494Z,29.05
2019-02-18T12:16:40.080Z,28.45
2019-02-18T12:17:56.563Z,27.05
2019-02-18T12:19:13.653Z,26.02
2019-02-18T12:20:30.919Z,30.05
2019-02-18T12:21:47.187Z,26.27
2019-02-18T12:22:51.989Z,28.50
2019-02-18T12:23:56.887Z,30.68
2019-02-18T12:25:01.666Z,26.60
2019-02-18T12:26:06.261Z,32.35
2019-02-18T12:27:10.855Z,27.07
2019-02-18T12:28:15.443Z,29.23
2019-02-18T12:29:26.163Z,31.80
2019-02-18T12:30:26.394Z,31.37
2019-02-18T12:31:31.007Z,31.45
2019-02-18T12:32:35.658Z,27.77
2019-02-18T12:33:40.282Z,30.72
2019-02-18T12:34:45.042Z,25.20
2019-02-18T12:35:49.652Z,26.75
2019-02-18T12:36:54.368Z,28.17
2019-02-18T12:37:59.021Z,28.90
2019-02-18T12:39:06.125Z,26.82
2019-02-18T12:40:10.779Z,26.23
2019-02-18T12:41:15.396Z,29.85
2019-02-18T12:42:20.314Z,25.90
2019-02-18T12:43:25.192Z,27.45
2019-02-18T12:44:29.798Z,29.63
2019-02-18T12:45:34.497Z,31.48
2019-02-18T12:46:39.075Z,29.32
2019-02-18T12:47:43.678Z,24.98
2019-02-18T12:48:48.315Z,31.65
2019-02-18T12:49:52.907Z,29.50
2019-02-18T12:50:57.600Z,26.73
2019-02-18T12:52:02.241Z,26.62
2019-02-18T12:53:06.872Z,27.42
2019-02-18T12:54:11.535Z,25.32
2019-02-18T12:55:16.426Z,29.57
2019-02-18T12:56:21.223Z,26.45
2019-02-18T12:57:26.022Z,29.10
2019-02-18T12:58:30.989Z,29.55
2019-02-18T12:59:35.734Z,27.62
2019-02-18T13:00:40.451Z,24.45
2019-02-18T13:01:45.039Z,26.15
2019-02-18T13:02:49.756Z,28.85
2019-02-18T13:03:54.503Z,26.75
2019-02-18T13:04:59.166Z,25.65
2019-02-18T13:06:03.991Z,28.40
2019-02-18T13:07:08.722Z,26.77
2019-02-18T13:08:13.455Z,24.55
2019-02-18T13:09:18.143Z,28.75
2019-02-18T13:10:22.809Z,27.60
2019-02-18T13:11:27.554Z,28.40
2019-02-18T13:12:32.375Z,25.60
2019-02-18T13:13:37.376Z,30.02
2019-02-18T13:14:42.158Z,29.05
2019-02-18T13:15:46.816Z,26.62
2019-02-18T13:16:51.442Z,24.72
2019-02-18T13:17:56.077Z,28.27
2019-02-18T13:19:00.794Z,29.45
2019-02-18T13:20:05.511Z,27.55
2019-02-18T13:21:10.271Z,28.73
2019-02-18T13:22:15.011Z,27.45
2019-02-18T13:23:19.662Z,26.10
2019-02-18T13:24:24.379Z,34.27
2019-02-18T13:25:29.045Z,29.20
2019-02-18T13:26:33.711Z,27.48
2019-02-18T13:27:38.386Z,30.40
2019-02-18T13:28:43.200Z,26.45
2019-02-18T13:29:48.102Z,29.92
2019-02-18T13:30:52.746Z,33.55
2019-02-18T13:31:57.416Z,44.00
2019-02-18T13:33:01.988Z,28.50
2019-02-18T13:34:06.679Z,25.02
2019-02-18T13:35:11.353Z,25.57
2019-02-18T13:36:16.087Z,26.23
2019-02-18T13:37:20.666Z,26.65
2019-02-18T13:38:25.292Z,26.25
2019-02-18T13:39:29.908Z,25.77
2019-02-18T13:40:34.601Z,29.60
2019-02-18T13:41:39.283Z,25.17
2019-02-18T13:42:43.972Z,29.00
2019-02-18T13:43:48.637Z,26.57
2019-02-18T13:44:53.288Z,31.30
2019-02-18T13:45:58.139Z,29.12
2019-02-18T13:47:03.283Z,22.80
2019-02-18T13:48:07.952Z,26.07
2019-02-18T13:49:12.629Z,24.80
2019-02-18T13:50:17.248Z,26.25
2019-02-18T13:51:24.281Z,33.67
2019-02-18T13:52:28.253Z,24.60
2019-02-18T13:53:32.838Z,27.32
2019-02-18T13:54:37.487Z,29.30
2019-02-18T13:55:42.178Z,26.77
2019-02-18T13:56:46.919Z,26.93
2019-02-18T13:57:51.532Z,34.03
2019-02-18T13:58:56.249Z,27.60
2019-02-18T14:00:00.934Z,30.95
2019-02-18T14:01:06.195Z,32.25
2019-02-18T14:02:10.991Z,28.25
2019-02-18T14:03:15.596Z,22.85
2019-02-18T14:04:20.451Z,26.20
2019-02-18T14:05:25.343Z,26.27
2019-02-18T14:06:29.991Z,25.15
2019-02-18T14:07:36.277Z,27.60
2019-02-18T14:08:41.912Z,25.27
2019-02-18T14:09:46.568Z,30.77
2019-02-18T14:10:51.121Z,24.47
2019-02-18T14:11:55.687Z,31.80
2019-02-18T14:13:00.417Z,27.13
2019-02-18T14:14:05.041Z,24.47
2019-02-18T14:15:11.390Z,22.90
2019-02-18T14:16:16.083Z,25.30
2019-02-18T14:17:20.668Z,25.92
2019-02-18T14:18:25.289Z,27.37
2019-02-18T14:19:29.932Z,23.80
2019-02-18T14:20:34.550Z,24.82
2019-02-18T14:21:39.200Z,24.18
2019-02-18T14:22:44.109Z,24.27
2019-02-18T14:23:49.065Z,23.30
2019-02-18T14:24:53.819Z,23.15
2019-02-18T14:25:58.435Z,25.80
2019-02-18T14:27:03.107Z,23.25
2019-02-18T14:28:07.723Z,22.73
2019-02-18T14:29:12.288Z,25.12
2019-02-18T14:30:17.116Z,23.47
2019-02-18T14:31:21.723Z,25.75
2019-02-18T14:32:26.273Z,24.82
2019-02-18T14:33:30.944Z,22.87
2019-02-18T14:34:35.690Z,29.72
2019-02-18T14:35:40.409Z,23.42
2019-02-18T14:36:45.151Z,22.77
2019-02-18T14:37:49.859Z,25.90
2019-02-18T14:38:54.478Z,22.25
2019-02-18T14:39:59.147Z,22.75
2019-02-18T14:41:04.160Z,20.90
2019-02-18T14:42:09.102Z,24.50
2019-02-18T14:43:13.660Z,24.32
2019-02-18T14:44:18.257Z,26.33
2019-02-18T14:45:22.863Z,25.08
2019-02-18T14:46:27.530Z,23.98
2019-02-18T14:47:32.166Z,27.70
2019-02-18T14:48:36.783Z,20.80
2019-02-18T14:49:41.436Z,22.73
2019-02-18T14:50:46.078Z,24.05
2019-02-18T14:51:50.755Z,28.57
2019-02-18T14:52:55.483Z,25.43
2019-02-18T14:54:00.091Z,26.27
2019-02-18T14:55:05.126Z,25.12
2019-02-18T14:56:13.146Z,25.68
2019-02-18T14:57:17.730Z,24.57
2019-02-18T14:58:22.347Z,22.93
2019-02-18T14:59:28.119Z,20.90
2019-02-18T15:00:33.213Z,20.55
2019-02-18T15:01:37.934Z,21.75
2019-02-18T15:02:43.559Z,22.85
2019-02-18T15:03:48.131Z,22.30
2019-02-18T15:04:52.901Z,20.15
2019-02-18T15:05:57.576Z,22.25
2019-02-18T15:07:02.229Z,24.20
2019-02-18T15:08:06.899Z,20.25
2019-02-18T15:09:11.479Z,19.40
2019-02-18T15:10:16.139Z,24.15
2019-02-18T15:11:20.752Z,24.85
2019-02-18T15:12:32.735Z,20.32
2019-02-18T15:13:31.603Z,30.40
2019-02-18T15:14:36.272Z,20.75
2019-02-18T15:15:40.919Z,25.72
2019-02-18T15:16:45.569Z,21.48
2019-02-18T15:17:50.478Z,20.85
2019-02-18T15:18:55.554Z,23.18
2019-02-18T15:20:00.208Z,29.52
2019-02-18T15:21:04.932Z,22.13
2019-02-18T15:22:09.533Z,23.20
2019-02-18T15:23:14.186Z,22.87
2019-02-18T15:24:18.941Z,24.77
2019-02-18T15:25:23.587Z,27.73
2019-02-18T15:26:28.207Z,27.37
2019-02-18T15:27:32.884Z,25.75
2019-02-18T15:28:37.754Z,23.67
2019-02-18T15:29:42.350Z,27.50
2019-02-18T15:30:47.036Z,24.15
2019-02-18T15:31:51.738Z,23.30
2019-02-18T15:32:56.544Z,22.05
2019-02-18T15:34:01.185Z,28.32
2019-02-18T15:35:05.784Z,25.23
2019-02-18T15:36:10.691Z,28.70
2019-02-18T15:37:16.637Z,21.62
2019-02-18T15:38:21.219Z,24.55
2019-02-18T15:39:26.087Z,22.75
2019-02-18T15:40:30.829Z,24.00
2019-02-18T15:41:35.400Z,22.10
2019-02-18T15:42:42.214Z,27.45
2019-02-18T15:43:46.317Z,24.80
2019-02-18T15:44:51.003Z,26.02
2019-02-18T15:45:55.606Z,22.82
2019-02-18T15:47:00.354Z,27.73
2019-02-18T15:48:05.555Z,25.02
2019-02-18T15:49:10.208Z,20.40
2019-02-18T15:50:15.555Z,21.37
2019-02-18T15:51:20.278Z,24.57
2019-02-18T15:52:24.927Z,24.20
2019-02-18T15:53:29.769Z,24.35
2019-02-18T15:54:34.435Z,21.15
2019-02-18T15:55:40.135Z,24.20
2019-02-18T15:56:44.888Z,28.50
2019-02-18T15:57:49.498Z,27.98
2019-02-18T15:58:54.153Z,26.55
2019-02-18T15:59:58.828Z,23.85